Marcos Juarez, Argentina
Current Conditions -  °F | °C
As of 8:00 PM on Saturday 20 Dec 2014 (Local Time) from SAAR Reporting Station
Broken Clouds Broken Clouds  
Wind Chill: 72°   Ceiling: 10000
Heat Index: 72°   Visibility: 6mi
Dew Point: 63°   Wind: 9mph
Humidity: 73%   Direction: 140°SE
Pressure: 29.56"   Gusts: NA
Location:  32.71°S, 62.11°W
Report Text: SAAR 202300Z 14008KT 9999 FEW030 BKN10022/17 Q1001
Loading
Personal Weather Stations






























Interactive Weather Map New forecast layout! Learn more

10-Day Weather Forecast

Advertisements
Track Severe Weather on mobile